createdAt,value
2023-03-17T00:00:16.974Z,170.83
2023-03-17T00:01:19.834Z,164.50
2023-03-17T00:02:23.613Z,161.67
2023-03-17T00:03:29.488Z,165.33
2023-03-17T00:04:32.008Z,164.67
2023-03-17T00:05:39.047Z,163.67
2023-03-17T00:06:41.559Z,166.67
2023-03-17T00:07:46.288Z,168.83
2023-03-17T00:08:48.642Z,170.17
2023-03-17T00:09:50.957Z,171.50
2023-03-17T00:10:53.925Z,173.83
2023-03-17T00:11:56.254Z,180.83
2023-03-17T00:12:58.584Z,200.67
2023-03-17T00:14:01.735Z,202.33
2023-03-17T00:15:05.346Z,200.17
2023-03-17T00:16:16.386Z,199.00
2023-03-17T00:17:18.842Z,196.50
2023-03-17T00:18:22.574Z,195.67
2023-03-17T00:19:33.808Z,196.00
2023-03-17T00:20:36.328Z,197.33
2023-03-17T00:21:38.992Z,203.17
2023-03-17T00:22:41.546Z,204.33
2023-03-17T00:23:48.920Z,203.33
2023-03-17T00:24:51.471Z,204.17
2023-03-17T00:25:54.474Z,205.33
2023-03-17T00:26:57.041Z,205.17
2023-03-17T00:28:01.031Z,206.67
2023-03-17T00:29:03.426Z,206.67
2023-03-17T00:30:06.397Z,205.50
2023-03-17T00:31:17.844Z,201.50
2023-03-17T00:32:21.350Z,192.00
2023-03-17T00:33:26.854Z,190.50
2023-03-17T00:34:29.919Z,178.17
2023-03-17T00:35:32.485Z,172.83
2023-03-17T00:36:35.983Z,174.17
2023-03-17T00:37:39.659Z,176.00
2023-03-17T00:38:42.160Z,170.50
2023-03-17T00:39:45.005Z,170.83
2023-03-17T00:40:48.026Z,172.83
2023-03-17T00:41:50.406Z,173.67
2023-03-17T00:42:53.600Z,174.83
2023-03-17T00:43:56.051Z,186.83
2023-03-17T00:44:58.371Z,206.50
2023-03-17T00:46:00.827Z,213.17
2023-03-17T00:47:03.301Z,214.33
2023-03-17T00:48:31.076Z,208.33
2023-03-17T00:49:34.212Z,203.17
2023-03-17T00:50:36.621Z,195.17
2023-03-17T00:51:39.514Z,190.00
2023-03-17T00:52:42.669Z,187.17
2023-03-17T00:53:45.877Z,183.00
2023-03-17T00:54:48.214Z,181.00
2023-03-17T00:55:50.647Z,179.33
2023-03-17T00:56:53.036Z,175.83
2023-03-17T00:57:55.410Z,173.17
2023-03-17T00:58:58.034Z,171.67
2023-03-17T01:00:00.423Z,171.67
2023-03-17T01:01:02.894Z,172.33
2023-03-17T01:02:05.448Z,170.00
2023-03-17T01:03:11.571Z,167.00
2023-03-17T01:04:14.286Z,163.50
2023-03-17T01:05:17.212Z,163.50
2023-03-17T01:06:20.278Z,165.00
2023-03-17T01:07:22.913Z,162.17
2023-03-17T01:08:26.295Z,158.33
2023-03-17T01:09:29.114Z,156.83
2023-03-17T01:10:32.686Z,156.33
2023-03-17T01:11:35.909Z,153.17
2023-03-17T01:12:38.283Z,150.67
2023-03-17T01:13:40.649Z,149.67
2023-03-17T01:14:43.760Z,150.17
2023-03-17T01:15:48.647Z,151.33
2023-03-17T01:16:53.148Z,152.67
2023-03-17T01:17:57.319Z,154.00
2023-03-17T01:19:00.230Z,159.83
2023-03-17T01:20:02.995Z,167.17
2023-03-17T01:21:05.683Z,174.50
2023-03-17T01:22:09.069Z,187.33
2023-03-17T01:23:12.318Z,194.00
2023-03-17T01:24:14.679Z,212.17
2023-03-17T01:25:18.348Z,225.17
2023-03-17T01:26:20.718Z,234.00
2023-03-17T01:27:23.091Z,233.83
2023-03-17T01:28:25.554Z,226.50
2023-03-17T01:29:28.272Z,211.17
2023-03-17T01:30:33.867Z,193.33
2023-03-17T01:31:36.490Z,173.50
2023-03-17T01:32:39.401Z,170.83
2023-03-17T01:33:41.797Z,166.17
2023-03-17T01:34:44.156Z,160.33
2023-03-17T01:35:46.629Z,166.00
2023-03-17T01:36:49.012Z,172.00
2023-03-17T01:37:52.149Z,174.67
2023-03-17T01:38:54.519Z,179.00
2023-03-17T01:39:56.897Z,188.50
2023-03-17T01:41:01.299Z,191.83
2023-03-17T01:42:04.247Z,172.00
2023-03-17T01:43:06.578Z,157.67
2023-03-17T01:44:19.352Z,159.17
2023-03-17T01:45:59.522Z,151.33
2023-03-17T01:47:02.803Z,151.50
2023-03-17T01:48:05.829Z,148.50
2023-03-17T01:49:42.388Z,146.83
2023-03-17T01:50:48.395Z,153.50
2023-03-17T01:52:01.073Z,161.67
2023-03-17T01:53:03.481Z,176.00
2023-03-17T01:54:12.567Z,185.50
2023-03-17T01:55:18.038Z,190.50
2023-03-17T01:56:20.908Z,185.33
2023-03-17T01:57:29.625Z,183.50
2023-03-17T01:58:33.593Z,182.17
2023-03-17T01:59:41.220Z,181.33
2023-03-17T02:00:44.199Z,178.50
2023-03-17T02:01:49.581Z,174.67
2023-03-17T02:02:55.562Z,173.83
2023-03-17T02:03:58.862Z,169.83
2023-03-17T02:05:01.836Z,167.00
2023-03-17T02:06:05.022Z,167.83
2023-03-17T02:07:07.967Z,168.33
2023-03-17T02:08:12.898Z,169.00
2023-03-17T02:09:15.848Z,170.17
2023-03-17T02:10:20.690Z,171.67
2023-03-17T02:11:24.242Z,172.50
2023-03-17T02:12:29.100Z,173.00
2023-03-17T02:13:32.050Z,173.00
2023-03-17T02:14:34.430Z,170.33
2023-03-17T02:15:42.136Z,164.50
2023-03-17T02:16:45.451Z,157.50
2023-03-17T02:17:48.644Z,153.17
2023-03-17T02:18:51.058Z,151.00
2023-03-17T02:19:53.817Z,148.33
2023-03-17T02:21:32.676Z,145.83
2023-03-17T02:22:35.135Z,146.50
2023-03-17T02:23:37.664Z,148.67
2023-03-17T02:24:49.422Z,149.00
2023-03-17T02:25:53.186Z,145.50
2023-03-17T02:27:00.388Z,142.67
2023-03-17T02:28:09.912Z,144.17
2023-03-17T02:29:12.830Z,145.33
2023-03-17T02:30:17.450Z,146.50
2023-03-17T02:31:20.672Z,147.33
2023-03-17T02:32:23.086Z,146.00
2023-03-17T02:33:25.629Z,141.00
2023-03-17T02:34:28.029Z,145.33
2023-03-17T02:35:31.133Z,178.33
2023-03-17T02:36:33.956Z,175.17
2023-03-17T02:37:36.539Z,171.67
2023-03-17T02:38:38.939Z,170.67
2023-03-17T02:39:41.642Z,172.33
2023-03-17T02:40:44.012Z,173.67
2023-03-17T02:41:46.394Z,172.33
2023-03-17T02:42:49.162Z,170.67
2023-03-17T02:43:52.333Z,161.83
2023-03-17T02:44:55.037Z,155.67
2023-03-17T02:45:57.435Z,153.17
2023-03-17T02:47:01.037Z,153.00
2023-03-17T02:48:04.123Z,154.17
2023-03-17T02:49:06.665Z,156.67
2023-03-17T02:50:10.830Z,160.83
2023-03-17T02:51:14.480Z,164.00
2023-03-17T02:52:16.909Z,167.17
2023-03-17T02:53:19.307Z,167.00
2023-03-17T02:54:21.759Z,167.00
2023-03-17T02:55:24.168Z,166.67
2023-03-17T02:56:26.883Z,166.00
2023-03-17T02:57:29.291Z,166.00
2023-03-17T02:58:31.764Z,163.00
2023-03-17T02:59:34.528Z,153.83
2023-03-17T03:00:36.915Z,147.00
2023-03-17T03:01:39.871Z,141.83
2023-03-17T03:02:42.635Z,137.83
2023-03-17T03:03:45.064Z,132.17
2023-03-17T03:04:47.862Z,131.50
2023-03-17T03:05:51.212Z,133.00
2023-03-17T03:06:54.262Z,135.33
2023-03-17T03:07:56.694Z,137.17
2023-03-17T03:08:59.138Z,138.00
2023-03-17T03:10:02.795Z,138.83
2023-03-17T03:11:05.676Z,139.00
2023-03-17T03:12:10.115Z,139.00
2023-03-17T03:13:12.560Z,139.50
2023-03-17T03:14:15.292Z,139.83
2023-03-17T03:15:17.794Z,139.50
2023-03-17T03:16:20.255Z,139.00
2023-03-17T03:17:23.110Z,139.00
2023-03-17T03:18:26.179Z,139.00
2023-03-17T03:19:28.958Z,139.00
2023-03-17T03:20:31.629Z,139.00
2023-03-17T03:21:34.209Z,139.00
2023-03-17T03:22:36.619Z,139.00
2023-03-17T03:23:39.058Z,138.50
2023-03-17T03:24:41.763Z,136.00
2023-03-17T03:25:44.408Z,133.17
2023-03-17T03:26:46.777Z,131.17
2023-03-17T03:27:49.187Z,130.83
2023-03-17T03:28:52.063Z,130.00
2023-03-17T03:29:54.393Z,130.00
2023-03-17T03:30:56.825Z,130.00
2023-03-17T03:31:59.259Z,130.00
2023-03-17T03:33:02.246Z,130.83
2023-03-17T03:34:04.655Z,131.00
2023-03-17T03:35:08.479Z,131.83
2023-03-17T03:36:11.590Z,133.33
2023-03-17T03:37:14.115Z,134.00
2023-03-17T03:38:16.496Z,135.00
2023-03-17T03:39:18.975Z,136.33
2023-03-17T03:40:21.655Z,137.67
2023-03-17T03:41:24.047Z,139.67
2023-03-17T03:42:26.432Z,141.50
2023-03-17T03:43:29.281Z,146.17
2023-03-17T03:44:31.667Z,151.33
2023-03-17T03:45:34.123Z,152.83
2023-03-17T03:46:36.517Z,155.17
2023-03-17T03:47:38.922Z,166.67
2023-03-17T03:48:41.337Z,174.00
2023-03-17T03:49:43.701Z,168.00
2023-03-17T03:50:46.067Z,164.67
2023-03-17T03:51:48.509Z,164.00
2023-03-17T03:52:50.937Z,162.17
2023-03-17T03:53:53.324Z,160.83
2023-03-17T03:54:55.789Z,159.67
2023-03-17T03:55:58.188Z,158.50
2023-03-17T03:57:00.649Z,155.83
2023-03-17T03:58:03.027Z,150.67
2023-03-17T03:59:05.463Z,147.17
2023-03-17T04:00:09.227Z,145.33
2023-03-17T04:01:11.674Z,142.17
2023-03-17T04:02:14.141Z,141.67
2023-03-17T04:03:16.633Z,142.00
2023-03-17T04:04:19.118Z,142.83
2023-03-17T04:05:22.281Z,143.50
2023-03-17T04:06:24.710Z,145.00
2023-03-17T04:07:27.144Z,145.83
2023-03-17T04:08:31.816Z,146.50
2023-03-17T04:09:35.161Z,147.33
2023-03-17T04:10:37.589Z,147.33
2023-03-17T04:11:39.974Z,145.50
2023-03-17T04:12:42.899Z,139.17
2023-03-17T04:13:45.296Z,128.50
2023-03-17T04:14:47.774Z,121.00
2023-03-17T04:15:50.537Z,118.83
2023-03-17T04:16:52.971Z,119.00
2023-03-17T04:17:55.743Z,118.50
2023-03-17T04:18:58.139Z,118.67
2023-03-17T04:20:00.752Z,119.83
2023-03-17T04:21:03.183Z,121.17
2023-03-17T04:22:06.893Z,122.50
2023-03-17T04:23:09.327Z,123.00
2023-03-17T04:24:11.763Z,123.00
2023-03-17T04:25:15.245Z,123.67
2023-03-17T04:26:18.831Z,124.17
2023-03-17T04:27:21.303Z,125.50
2023-03-17T04:28:23.815Z,127.00
2023-03-17T04:29:26.192Z,128.00
2023-03-17T04:30:29.059Z,128.00
2023-03-17T04:31:31.709Z,127.50
2023-03-17T04:32:34.120Z,127.00
2023-03-17T04:33:36.484Z,127.00
2023-03-17T04:34:39.323Z,128.00
2023-03-17T04:35:41.800Z,129.00
2023-03-17T04:36:48.397Z,129.00
2023-03-17T04:37:51.222Z,128.83
2023-03-17T04:38:53.985Z,127.83
2023-03-17T04:39:56.580Z,124.50
2023-03-17T04:40:59.016Z,120.33
2023-03-17T04:42:01.513Z,118.33
2023-03-17T04:43:03.972Z,116.00
2023-03-17T04:44:07.182Z,114.67
2023-03-17T04:45:12.423Z,114.00
2023-03-17T04:46:14.998Z,114.67
2023-03-17T04:47:17.436Z,115.67
2023-03-17T04:48:19.828Z,118.00
2023-03-17T04:49:22.305Z,122.50
2023-03-17T04:50:25.237Z,126.17
2023-03-17T04:51:28.403Z,126.00
2023-03-17T04:52:31.215Z,126.17
2023-03-17T04:53:34.251Z,127.67
2023-03-17T04:54:37.209Z,130.17
2023-03-17T04:55:39.647Z,138.00
2023-03-17T04:56:42.422Z,144.17
2023-03-17T04:57:44.867Z,157.00
2023-03-17T04:58:47.227Z,174.00
2023-03-17T04:59:49.671Z,180.17
2023-03-17T05:00:52.182Z,177.17
2023-03-17T05:01:54.622Z,177.50
2023-03-17T05:02:57.020Z,175.33
2023-03-17T05:03:59.411Z,178.00
2023-03-17T05:05:02.242Z,172.67
2023-03-17T05:06:05.393Z,169.00
2023-03-17T05:07:07.830Z,167.50
2023-03-17T05:08:10.344Z,166.33
2023-03-17T05:09:12.956Z,165.00
2023-03-17T05:10:15.409Z,163.33
2023-03-17T05:11:17.790Z,161.50
2023-03-17T05:12:20.204Z,159.00
2023-03-17T05:13:23.114Z,156.50
2023-03-17T05:14:25.617Z,153.50
2023-03-17T05:15:28.010Z,151.83
2023-03-17T05:16:30.391Z,149.83
2023-03-17T05:17:32.885Z,148.17
2023-03-17T05:18:36.592Z,145.67
2023-03-17T05:19:38.946Z,144.17
2023-03-17T05:20:41.488Z,143.33
2023-03-17T05:21:44.204Z,143.00
2023-03-17T05:22:46.637Z,142.67
2023-03-17T05:23:49.012Z,141.50
2023-03-17T05:24:51.366Z,138.83
2023-03-17T05:25:53.910Z,137.17
2023-03-17T05:26:56.345Z,134.50
2023-03-17T05:27:58.938Z,134.00
2023-03-17T05:29:01.653Z,133.50
2023-03-17T05:30:04.492Z,133.00
2023-03-17T05:31:09.457Z,132.17
2023-03-17T05:32:13.978Z,132.00
2023-03-17T05:33:16.610Z,130.17
2023-03-17T05:34:19.004Z,127.17
2023-03-17T05:35:21.376Z,122.00
2023-03-17T05:36:23.754Z,121.00
2023-03-17T05:37:26.210Z,120.17
2023-03-17T05:38:28.579Z,120.50
2023-03-17T05:39:31.005Z,119.83
2023-03-17T05:40:33.410Z,117.50
2023-03-17T05:41:35.849Z,113.50
2023-03-17T05:42:39.050Z,109.17
2023-03-17T05:43:41.444Z,110.17
2023-03-17T05:44:44.629Z,111.83
2023-03-17T05:45:47.710Z,112.00
2023-03-17T05:46:50.381Z,114.67
2023-03-17T05:47:52.971Z,119.33
2023-03-17T05:48:55.333Z,120.00
2023-03-17T05:49:57.716Z,121.50
2023-03-17T05:51:00.422Z,124.83
2023-03-17T05:52:03.218Z,127.83
2023-03-17T05:53:06.439Z,128.00
2023-03-17T05:54:29.723Z,128.00
2023-03-17T05:55:32.236Z,130.33
2023-03-17T05:56:34.940Z,137.83
2023-03-17T05:57:58.285Z,147.83
2023-03-17T05:59:01.720Z,156.33
2023-03-17T06:00:05.445Z,158.83
2023-03-17T06:01:08.147Z,164.33
2023-03-17T06:02:11.531Z,170.67
2023-03-17T06:03:14.396Z,167.33
2023-03-17T06:04:17.232Z,169.67
2023-03-17T06:05:19.628Z,207.67
2023-03-17T06:06:22.066Z,265.67
2023-03-17T06:07:24.481Z,280.33
2023-03-17T06:08:26.928Z,285.00
2023-03-17T06:09:29.431Z,289.00
2023-03-17T06:10:32.912Z,292.33
2023-03-17T06:11:35.591Z,291.00
2023-03-17T06:12:37.994Z,291.67
2023-03-17T06:13:40.447Z,284.67
2023-03-17T06:14:42.853Z,273.17
2023-03-17T06:15:48.768Z,259.33
2023-03-17T06:16:51.276Z,253.00
2023-03-17T06:17:53.607Z,227.83
2023-03-17T06:18:55.995Z,201.83
2023-03-17T06:19:58.403Z,185.17
2023-03-17T06:21:00.804Z,179.17
2023-03-17T06:22:03.281Z,173.17
2023-03-17T06:23:06.990Z,167.67
2023-03-17T06:24:09.808Z,167.00
2023-03-17T06:25:12.780Z,165.67
2023-03-17T06:26:15.114Z,165.83
2023-03-17T06:27:17.472Z,168.33
2023-03-17T06:28:19.895Z,171.33
2023-03-17T06:29:22.844Z,171.83
2023-03-17T06:30:25.330Z,173.83
2023-03-17T06:31:28.033Z,174.83
2023-03-17T06:32:30.795Z,170.00
2023-03-17T06:33:33.222Z,164.00
2023-03-17T06:34:38.357Z,154.50
2023-03-17T06:35:41.061Z,144.67
2023-03-17T06:36:45.527Z,144.67
2023-03-17T06:37:47.942Z,147.17
2023-03-17T06:38:50.411Z,144.50
2023-03-17T06:39:52.894Z,143.00
2023-03-17T06:40:55.400Z,139.83
2023-03-17T06:41:57.814Z,138.67
2023-03-17T06:43:01.343Z,136.50
2023-03-17T06:44:05.441Z,136.33
2023-03-17T06:45:09.480Z,132.00
2023-03-17T06:46:12.021Z,131.50
2023-03-17T06:47:14.883Z,133.83
2023-03-17T06:48:19.687Z,134.67
2023-03-17T06:49:22.350Z,133.83
2023-03-17T06:50:28.112Z,130.17
2023-03-17T06:51:32.655Z,128.17
2023-03-17T06:52:36.106Z,130.17
2023-03-17T06:53:40.056Z,131.50
2023-03-17T06:54:42.993Z,137.00
2023-03-17T06:55:46.808Z,144.50
2023-03-17T06:56:49.287Z,152.83
2023-03-17T06:57:52.546Z,165.83
2023-03-17T06:58:55.108Z,173.00
2023-03-17T06:59:57.964Z,178.17
2023-03-17T07:01:00.770Z,177.67
2023-03-17T07:02:03.778Z,178.50
2023-03-17T07:03:07.979Z,185.83
2023-03-17T07:04:10.609Z,190.67
2023-03-17T07:05:14.079Z,186.83
2023-03-17T07:06:18.264Z,182.17
2023-03-17T07:07:21.551Z,180.33
2023-03-17T07:08:24.077Z,183.50
2023-03-17T07:09:26.493Z,186.17
2023-03-17T07:10:28.994Z,183.50
2023-03-17T07:11:32.831Z,182.33
2023-03-17T07:12:35.995Z,182.00
2023-03-17T07:13:39.577Z,182.00
2023-03-17T07:14:42.012Z,182.00
2023-03-17T07:15:45.111Z,181.17
2023-03-17T07:16:48.640Z,180.83
2023-03-17T07:17:51.378Z,177.50
2023-03-17T07:18:54.227Z,174.50
2023-03-17T07:19:56.737Z,170.33
2023-03-17T07:21:02.300Z,160.50
2023-03-17T07:22:04.845Z,151.83
2023-03-17T07:23:07.691Z,141.33
2023-03-17T07:24:11.384Z,132.00
2023-03-17T07:25:13.793Z,129.33
2023-03-17T07:26:16.282Z,123.17
2023-03-17T07:27:20.796Z,118.50
2023-03-17T07:28:24.918Z,113.17
2023-03-17T07:29:28.568Z,108.50
2023-03-17T07:30:30.981Z,102.83
2023-03-17T07:31:34.002Z,105.33
2023-03-17T07:32:36.624Z,108.67
2023-03-17T07:33:39.169Z,109.50
2023-03-17T07:34:41.844Z,112.00
2023-03-17T07:35:44.623Z,113.00
2023-03-17T07:36:47.091Z,111.50
2023-03-17T07:37:49.950Z,106.83
2023-03-17T07:38:52.381Z,106.83
2023-03-17T07:39:54.951Z,107.83
2023-03-17T07:40:57.608Z,108.00
2023-03-17T07:42:00.303Z,101.67
2023-03-17T07:43:03.104Z,93.33
2023-03-17T07:44:05.581Z,91.67
2023-03-17T07:45:08.650Z,88.00
2023-03-17T07:46:11.429Z,84.67
2023-03-17T07:47:14.949Z,85.50
2023-03-17T07:48:18.435Z,82.67
2023-03-17T07:49:40.381Z,79.83
2023-03-17T07:50:43.608Z,79.33
2023-03-17T07:51:46.788Z,79.67
2023-03-17T07:52:52.581Z,82.00
2023-03-17T07:54:06.791Z,83.33
2023-03-17T07:55:25.255Z,84.00
2023-03-17T07:56:30.673Z,80.00
2023-03-17T07:57:36.071Z,75.67
2023-03-17T07:58:38.514Z,76.67
2023-03-17T07:59:50.107Z,78.00
2023-03-17T08:00:53.618Z,76.17
2023-03-17T08:01:59.312Z,70.00
2023-03-17T08:03:09.718Z,60.00
2023-03-17T08:04:13.342Z,56.67
2023-03-17T08:05:15.817Z,58.00
2023-03-17T08:06:18.279Z,56.17
2023-03-17T08:07:20.918Z,56.33
2023-03-17T08:08:24.900Z,56.50
2023-03-17T08:09:27.405Z,56.00
2023-03-17T08:10:30.396Z,55.17
2023-03-17T08:11:33.393Z,56.00
2023-03-17T08:12:36.753Z,55.67
2023-03-17T08:13:41.085Z,54.17
2023-03-17T08:14:43.614Z,53.00
2023-03-17T08:15:46.477Z,53.00
2023-03-17T08:16:48.981Z,53.67
2023-03-17T08:17:52.115Z,54.00
2023-03-17T08:18:54.700Z,54.83
2023-03-17T08:19:57.425Z,53.00
2023-03-17T08:21:00.142Z,50.00
2023-03-17T08:22:03.486Z,46.17
2023-03-17T08:23:06.262Z,43.33
2023-03-17T08:24:08.705Z,41.50
2023-03-17T08:25:11.776Z,39.33
2023-03-17T08:26:14.525Z,38.83
2023-03-17T08:27:19.180Z,39.83
2023-03-17T08:28:22.153Z,40.67
2023-03-17T08:29:24.553Z,41.00
2023-03-17T08:30:27.521Z,41.50
2023-03-17T08:31:30.019Z,42.00
2023-03-17T08:32:32.812Z,41.67
2023-03-17T08:33:35.308Z,39.00
2023-03-17T08:34:38.229Z,35.33
2023-03-17T08:35:42.205Z,30.33
2023-03-17T08:36:45.863Z,28.17
2023-03-17T08:37:48.682Z,28.00
2023-03-17T08:38:51.553Z,28.00
2023-03-17T08:39:54.034Z,28.33
2023-03-17T08:41:25.327Z,29.00
2023-03-17T08:42:28.155Z,29.00
2023-03-17T08:43:30.837Z,28.33
2023-03-17T08:44:33.762Z,27.17
2023-03-17T08:45:36.467Z,27.00
2023-03-17T08:46:44.062Z,27.00
2023-03-17T08:47:48.212Z,26.50
2023-03-17T08:49:00.525Z,25.83
2023-03-17T08:50:05.678Z,24.83
2023-03-17T08:51:09.496Z,24.00
2023-03-17T08:52:11.963Z,24.00
2023-03-17T08:53:14.507Z,24.00
2023-03-17T08:54:19.351Z,24.00
2023-03-17T08:55:21.896Z,24.17
2023-03-17T08:56:51.583Z,25.00
2023-03-17T08:57:54.019Z,26.17
2023-03-17T08:58:56.826Z,27.00
2023-03-17T08:59:59.375Z,27.00
2023-03-17T09:01:04.615Z,27.00
2023-03-17T09:02:11.129Z,27.00
2023-03-17T09:04:14.210Z,27.00
2023-03-17T09:05:17.602Z,27.00
2023-03-17T09:06:20.301Z,27.00
2023-03-17T09:07:22.754Z,27.00
2023-03-17T09:13:05.328Z,25.67
2023-03-17T09:14:07.886Z,24.50
2023-03-17T09:15:12.151Z,23.83
2023-03-17T09:16:16.331Z,22.83
2023-03-17T09:17:18.956Z,22.00
2023-03-17T09:18:22.577Z,22.17
2023-03-17T09:19:25.480Z,23.00
2023-03-17T09:20:27.856Z,23.00
2023-03-17T09:21:30.308Z,22.67
2023-03-17T09:22:32.932Z,22.00
2023-03-17T09:23:35.630Z,21.50
2023-03-17T09:24:40.378Z,21.00
2023-03-17T09:25:42.998Z,21.00
2023-03-17T09:26:45.617Z,21.00
2023-03-17T09:27:48.332Z,21.00
2023-03-17T09:28:50.784Z,21.00
2023-03-17T09:29:53.140Z,21.00
2023-03-17T09:31:01.379Z,21.00
2023-03-17T09:32:04.168Z,21.00
2023-03-17T09:33:06.686Z,21.00
2023-03-17T09:34:11.586Z,21.00
2023-03-17T09:35:14.936Z,21.00
2023-03-17T09:36:18.621Z,21.00
2023-03-17T09:37:23.822Z,20.17
2023-03-17T09:38:29.715Z,20.00
2023-03-17T09:39:33.576Z,20.00
2023-03-17T09:41:06.455Z,20.00
2023-03-17T09:42:19.057Z,20.00
2023-03-17T09:43:35.313Z,20.00
2023-03-17T09:44:59.092Z,20.00
2023-03-17T09:46:16.847Z,20.00
2023-03-17T09:47:47.325Z,20.00
2023-03-17T09:49:04.155Z,20.00
2023-03-17T09:50:33.429Z,20.83
2023-03-17T09:51:44.890Z,21.17
2023-03-17T10:20:11.745Z,23.00
2023-03-17T10:21:19.421Z,23.00
2023-03-17T10:22:53.241Z,23.00
2023-03-17T10:24:00.481Z,23.00
2023-03-17T10:28:40.771Z,22.00
2023-03-17T10:29:43.836Z,22.00
2023-03-17T10:30:48.355Z,22.00
2023-03-17T10:31:56.350Z,22.00
2023-03-17T10:33:03.452Z,22.00
2023-03-17T10:34:16.335Z,21.33
2023-03-17T10:35:21.200Z,21.00
2023-03-17T10:38:13.721Z,19.50
2023-03-17T10:39:48.874Z,18.83
2023-03-17T10:42:49.899Z,17.33
2023-03-17T10:43:52.365Z,17.00
2023-03-17T10:45:50.652Z,17.00
2023-03-17T10:46:57.639Z,17.00
2023-03-17T10:48:04.876Z,17.00
2023-03-17T10:49:39.197Z,17.00
2023-03-17T10:50:41.871Z,17.00
2023-03-17T10:51:48.731Z,17.00
2023-03-17T10:53:07.755Z,17.00
2023-03-17T10:54:22.712Z,17.00
2023-03-17T10:55:29.577Z,17.00
2023-03-17T10:57:12.466Z,17.00
2023-03-17T10:58:18.120Z,17.00
2023-03-17T10:59:33.450Z,17.00
2023-03-17T11:00:38.833Z,17.00
2023-03-17T11:01:54.775Z,17.00
2023-03-17T11:02:59.394Z,17.00
2023-03-17T11:04:06.383Z,17.17
2023-03-17T11:05:29.341Z,18.00
2023-03-17T11:06:43.413Z,19.00
2023-03-17T11:07:46.951Z,19.00
2023-03-17T11:09:07.056Z,19.00
2023-03-17T11:10:25.634Z,19.00
2023-03-17T11:11:30.871Z,18.17
2023-03-17T11:12:40.122Z,18.00
2023-03-17T11:13:42.550Z,18.00
2023-03-17T11:14:44.953Z,18.00
2023-03-17T11:15:51.069Z,18.00
2023-03-17T11:17:03.875Z,18.00
2023-03-17T11:18:20.497Z,18.00
2023-03-17T11:19:32.016Z,19.33
2023-03-17T11:20:46.820Z,20.50
2023-03-17T11:22:20.954Z,21.00
2023-03-17T11:25:27.084Z,22.00
2023-03-17T11:26:51.462Z,23.00
2023-03-17T11:28:36.480Z,23.00
2023-03-17T11:30:06.349Z,23.00
2023-03-17T11:31:32.799Z,22.33
2023-03-17T11:32:39.984Z,22.00
2023-03-17T11:35:53.448Z,22.00
2023-03-17T11:37:29.202Z,22.17
2023-03-17T11:38:38.212Z,23.50
2023-03-17T11:42:01.258Z,23.50
2023-03-17T11:43:22.885Z,23.00
2023-03-17T11:44:44.918Z,23.00
2023-03-17T11:45:52.459Z,23.00
2023-03-17T11:46:58.139Z,23.00
2023-03-17T11:48:15.145Z,23.00
2023-03-17T11:49:40.640Z,23.00
2023-03-17T11:50:50.926Z,23.17
2023-03-17T11:52:05.023Z,28.67
2023-03-17T11:53:43.564Z,30.00
2023-03-17T11:54:54.175Z,30.00
2023-03-17T11:56:31.383Z,29.17
2023-03-17T11:57:56.857Z,29.00
2023-03-17T11:59:03.027Z,29.00
2023-03-17T12:00:17.764Z,28.67
2023-03-17T12:01:40.038Z,28.00
2023-03-17T12:03:01.022Z,27.00
2023-03-17T12:04:40.958Z,27.00
2023-03-17T12:05:50.670Z,25.67
2023-03-17T12:06:59.581Z,25.00
2023-03-17T12:08:46.721Z,24.00
2023-03-17T12:09:59.992Z,24.00
2023-03-17T12:11:08.367Z,23.67
2023-03-17T12:12:16.712Z,23.00
2023-03-17T12:13:40.699Z,23.00
2023-03-17T12:16:56.981Z,23.00
2023-03-17T12:18:14.270Z,23.00
2023-03-17T12:22:33.266Z,22.00
2023-03-17T12:23:50.481Z,21.00
2023-03-17T12:25:42.520Z,21.00
2023-03-17T12:27:46.284Z,20.00
2023-03-17T12:29:10.408Z,20.00
2023-03-17T12:30:49.549Z,20.00
2023-03-17T12:32:06.282Z,21.00
2023-03-17T13:12:39.761Z,25.00
2023-03-17T13:13:54.521Z,25.00
2023-03-17T13:14:58.159Z,25.00
2023-03-17T13:16:04.574Z,24.83
2023-03-17T13:17:19.884Z,24.00
2023-03-17T13:18:29.954Z,24.00
2023-03-17T13:19:33.628Z,24.00
2023-03-17T13:20:42.440Z,24.00
2023-03-17T13:21:59.975Z,24.00
2023-03-17T13:23:11.348Z,24.00
2023-03-17T13:24:16.187Z,23.17
2023-03-17T13:25:53.445Z,23.00
2023-03-17T13:27:01.853Z,23.67
2023-03-17T13:28:13.268Z,27.50
2023-03-17T13:29:26.194Z,30.83
2023-03-17T13:30:29.217Z,34.83
2023-03-17T13:31:35.574Z,37.00
2023-03-17T13:32:38.682Z,36.50
2023-03-17T13:33:53.546Z,36.00
2023-03-17T13:35:01.777Z,35.67
2023-03-17T13:36:10.071Z,35.00
2023-03-17T13:37:27.182Z,35.00
2023-03-17T13:38:35.542Z,35.00
2023-03-17T13:40:04.717Z,34.00
2023-03-17T13:41:07.086Z,33.17
2023-03-17T13:42:20.057Z,33.00
2023-03-17T13:43:54.856Z,33.00
2023-03-17T13:45:27.285Z,33.00
2023-03-17T13:46:41.778Z,34.00
2023-03-17T13:47:45.994Z,35.50
2023-03-17T13:48:48.996Z,36.00
2023-03-17T13:49:55.823Z,35.50
2023-03-17T13:51:14.920Z,35.00
2023-03-17T13:52:27.515Z,35.33
2023-03-17T13:53:33.199Z,37.50
2023-03-17T13:54:42.359Z,38.00
2023-03-17T13:56:22.480Z,37.83
2023-03-17T13:57:28.753Z,36.83
2023-03-17T13:58:35.278Z,35.83
2023-03-17T13:59:40.199Z,34.83
2023-03-17T14:00:51.742Z,34.00
2023-03-17T14:02:02.925Z,33.17
2023-03-17T14:03:35.291Z,32.33
2023-03-17T14:04:50.675Z,32.00
2023-03-17T14:05:54.304Z,30.83
2023-03-17T14:07:00.618Z,29.50
2023-03-17T14:08:05.609Z,28.17
2023-03-17T14:09:21.881Z,27.00
2023-03-17T14:10:27.316Z,27.00
2023-03-17T14:11:38.899Z,26.83
2023-03-17T14:13:12.062Z,26.00
2023-03-17T14:14:32.590Z,25.00
2023-03-17T14:15:48.180Z,24.17
2023-03-17T14:17:04.237Z,24.00
2023-03-17T14:18:19.844Z,24.00
2023-03-17T14:19:28.104Z,24.00
2023-03-17T14:20:30.728Z,24.00
2023-03-17T14:21:33.477Z,24.00
2023-03-17T14:22:45.581Z,24.00
2023-03-17T14:23:55.768Z,24.83
2023-03-17T14:25:01.804Z,25.00
2023-03-17T14:26:05.209Z,25.33
2023-03-17T14:27:08.052Z,26.50
2023-03-17T14:28:17.377Z,28.50
2023-03-17T14:29:30.027Z,30.67
2023-03-17T14:30:34.613Z,32.50
2023-03-17T14:31:37.261Z,33.00
2023-03-17T14:32:39.725Z,33.00
2023-03-17T14:33:42.200Z,33.00
2023-03-17T14:34:48.428Z,33.00
2023-03-17T14:35:53.154Z,33.00
2023-03-17T14:37:00.906Z,33.00
2023-03-17T14:38:04.310Z,33.17
2023-03-17T14:39:07.418Z,34.00
2023-03-17T14:40:21.752Z,33.17
2023-03-17T14:41:26.304Z,31.50
2023-03-17T14:42:30.804Z,31.00
2023-03-17T14:43:34.925Z,30.17
2023-03-17T14:44:42.251Z,29.83
2023-03-17T14:45:59.419Z,29.00
2023-03-17T14:47:07.500Z,29.50
2023-03-17T14:48:14.571Z,30.00
2023-03-17T14:49:20.431Z,30.00
2023-03-17T14:50:31.954Z,30.00
2023-03-17T14:51:37.148Z,29.83
2023-03-17T14:52:41.402Z,29.00
2023-03-17T14:53:46.456Z,29.00
2023-03-17T14:54:52.344Z,29.00
2023-03-17T14:55:54.874Z,29.00
2023-03-17T14:57:05.502Z,29.83
2023-03-17T14:58:10.220Z,30.83
2023-03-17T14:59:28.785Z,32.67
2023-03-17T15:00:34.676Z,37.17
2023-03-17T15:01:39.857Z,40.83
2023-03-17T15:02:44.266Z,43.33
2023-03-17T15:04:05.962Z,44.00
2023-03-17T15:05:17.302Z,43.17
2023-03-17T15:06:26.526Z,43.00
2023-03-17T15:07:49.228Z,43.00
2023-03-17T15:08:52.742Z,42.00
2023-03-17T15:10:04.333Z,40.67
2023-03-17T15:11:07.942Z,38.67
2023-03-17T15:12:18.628Z,38.00
2023-03-17T15:13:20.956Z,38.50
2023-03-17T15:14:29.870Z,39.00
2023-03-17T15:15:35.123Z,39.00
2023-03-17T15:16:38.862Z,39.00
2023-03-17T15:17:41.620Z,39.00
2023-03-17T15:18:44.351Z,39.00
2023-03-17T15:19:52.627Z,39.00
2023-03-17T15:20:55.626Z,38.17
2023-03-17T15:22:00.341Z,37.00
2023-03-17T15:23:22.223Z,36.00
2023-03-17T15:24:44.139Z,36.00
2023-03-17T15:25:55.850Z,38.00
2023-03-17T15:27:00.884Z,45.83
2023-03-17T15:28:11.304Z,48.00
2023-03-17T15:29:13.663Z,47.33
2023-03-17T15:30:16.629Z,46.67
2023-03-17T15:31:23.583Z,46.00